sensor_id;sensor_type;location;lat;lon;timestamp;P1;durP1;ratioP1;P2;durP2;ratioP2
4244;SDS011;2136;48.502;9.194;2022-11-03T00:00:55;9.57;;;7.10;;
4244;SDS011;2136;48.502;9.194;2022-11-03T00:03:22;14.63;;;7.70;;
4244;SDS011;2136;48.502;9.194;2022-11-03T00:05:50;16.83;;;8.33;;
4244;SDS011;2136;48.502;9.194;2022-11-03T00:08:33;15.10;;;7.73;;
4244;SDS011;2136;48.502;9.194;2022-11-03T00:11:02;17.13;;;7.37;;
4244;SDS011;2136;48.502;9.194;2022-11-03T00:13:30;19.43;;;7.60;;
4244;SDS011;2136;48.502;9.194;2022-11-03T00:15:57;10.90;;;7.03;;
4244;SDS011;2136;48.502;9.194;2022-11-03T00:18:24;13.17;;;6.83;;
4244;SDS011;2136;48.502;9.194;2022-11-03T00:20:55;13.80;;;7.10;;
4244;SDS011;2136;48.502;9.194;2022-11-03T00:23:24;13.80;;;6.90;;
4244;SDS011;2136;48.502;9.194;2022-11-03T00:25:52;14.47;;;6.60;;
4244;SDS011;2136;48.502;9.194;2022-11-03T00:28:19;18.40;;;10.30;;
4244;SDS011;2136;48.502;9.194;2022-11-03T00:30:46;12.00;;;6.70;;
4244;SDS011;2136;48.502;9.194;2022-11-03T00:33:12;11.23;;;7.30;;
4244;SDS011;2136;48.502;9.194;2022-11-03T00:35:39;11.67;;;7.43;;
4244;SDS011;2136;48.502;9.194;2022-11-03T00:38:07;17.07;;;7.77;;
4244;SDS011;2136;48.502;9.194;2022-11-03T00:40:34;20.33;;;9.53;;
4244;SDS011;2136;48.502;9.194;2022-11-03T00:43:01;19.03;;;9.87;;
4244;SDS011;2136;48.502;9.194;2022-11-03T00:45:28;13.93;;;9.33;;
4244;SDS011;2136;48.502;9.194;2022-11-03T00:47:55;13.60;;;8.90;;
4244;SDS011;2136;48.502;9.194;2022-11-03T00:50:39;13.53;;;9.97;;
4244;SDS011;2136;48.502;9.194;2022-11-03T00:53:08;13.50;;;8.20;;
4244;SDS011;2136;48.502;9.194;2022-11-03T00:55:35;10.83;;;7.60;;
4244;SDS011;2136;48.502;9.194;2022-11-03T00:58:01;12.33;;;8.07;;
4244;SDS011;2136;48.502;9.194;2022-11-03T01:00:28;17.50;;;8.17;;
4244;SDS011;2136;48.502;9.194;2022-11-03T01:02:55;17.00;;;7.77;;
4244;SDS011;2136;48.502;9.194;2022-11-03T01:05:22;15.13;;;7.83;;
4244;SDS011;2136;48.502;9.194;2022-11-03T01:08:08;14.70;;;6.60;;
4244;SDS011;2136;48.502;9.194;2022-11-03T01:10:35;12.77;;;8.60;;
4244;SDS011;2136;48.502;9.194;2022-11-03T01:13:23;13.23;;;7.50;;
4244;SDS011;2136;48.502;9.194;2022-11-03T01:15:49;8.97;;;7.20;;
4244;SDS011;2136;48.502;9.194;2022-11-03T01:18:16;14.20;;;7.80;;
4244;SDS011;2136;48.502;9.194;2022-11-03T01:20:43;16.23;;;8.00;;
4244;SDS011;2136;48.502;9.194;2022-11-03T01:23:11;9.83;;;6.53;;
4244;SDS011;2136;48.502;9.194;2022-11-03T01:25:38;11.67;;;7.90;;
4244;SDS011;2136;48.502;9.194;2022-11-03T01:28:04;9.27;;;6.77;;
4244;SDS011;2136;48.502;9.194;2022-11-03T01:30:31;12.43;;;6.60;;
4244;SDS011;2136;48.502;9.194;2022-11-03T01:32:58;11.27;;;7.33;;
4244;SDS011;2136;48.502;9.194;2022-11-03T01:35:25;11.13;;;7.00;;
4244;SDS011;2136;48.502;9.194;2022-11-03T01:37:52;15.83;;;6.93;;
4244;SDS011;2136;48.502;9.194;2022-11-03T01:40:22;12.90;;;7.00;;
4244;SDS011;2136;48.502;9.194;2022-11-03T01:42:49;12.77;;;9.07;;
4244;SDS011;2136;48.502;9.194;2022-11-03T01:45:16;11.43;;;6.97;;
4244;SDS011;2136;48.502;9.194;2022-11-03T01:47:43;9.20;;;7.27;;
4244;SDS011;2136;48.502;9.194;2022-11-03T01:50:12;15.70;;;9.40;;
4244;SDS011;2136;48.502;9.194;2022-11-03T01:52:45;9.37;;;7.13;;
4244;SDS011;2136;48.502;9.194;2022-11-03T01:55:17;19.83;;;7.70;;
4244;SDS011;2136;48.502;9.194;2022-11-03T01:57:49;18.20;;;8.60;;
4244;SDS011;2136;48.502;9.194;2022-11-03T02:00:20;13.30;;;7.93;;
4244;SDS011;2136;48.502;9.194;2022-11-03T02:02:47;10.70;;;7.57;;
4244;SDS011;2136;48.502;9.194;2022-11-03T02:05:15;11.00;;;8.13;;
4244;SDS011;2136;48.502;9.194;2022-11-03T02:07:44;17.03;;;7.73;;
4244;SDS011;2136;48.502;9.194;2022-11-03T02:10:15;14.50;;;7.53;;
4244;SDS011;2136;48.502;9.194;2022-11-03T02:12:42;8.57;;;6.87;;
4244;SDS011;2136;48.502;9.194;2022-11-03T02:15:11;28.03;;;8.03;;
4244;SDS011;2136;48.502;9.194;2022-11-03T02:17:41;12.53;;;7.00;;
4244;SDS011;2136;48.502;9.194;2022-11-03T02:20:10;8.27;;;6.40;;
4244;SDS011;2136;48.502;9.194;2022-11-03T02:22:49;12.10;;;7.13;;
4244;SDS011;2136;48.502;9.194;2022-11-03T02:25:42;14.17;;;6.50;;
4244;SDS011;2136;48.502;9.194;2022-11-03T02:28:10;9.10;;;6.43;;
4244;SDS011;2136;48.502;9.194;2022-11-03T02:30:41;12.07;;;6.47;;
4244;SDS011;2136;48.502;9.194;2022-11-03T02:33:12;9.23;;;6.50;;
4244;SDS011;2136;48.502;9.194;2022-11-03T02:36:01;9.10;;;6.07;;
4244;SDS011;2136;48.502;9.194;2022-11-03T02:38:32;9.33;;;6.37;;
4244;SDS011;2136;48.502;9.194;2022-11-03T02:41:06;19.27;;;10.17;;
4244;SDS011;2136;48.502;9.194;2022-11-03T02:43:34;9.23;;;6.00;;
4244;SDS011;2136;48.502;9.194;2022-11-03T02:46:02;9.63;;;6.60;;
4244;SDS011;2136;48.502;9.194;2022-11-03T02:48:31;7.90;;;6.00;;
4244;SDS011;2136;48.502;9.194;2022-11-03T02:50:58;7.60;;;5.30;;
4244;SDS011;2136;48.502;9.194;2022-11-03T02:53:25;8.57;;;6.57;;
4244;SDS011;2136;48.502;9.194;2022-11-03T02:55:54;13.93;;;6.80;;
4244;SDS011;2136;48.502;9.194;2022-11-03T02:58:29;10.60;;;7.03;;
4244;SDS011;2136;48.502;9.194;2022-11-03T03:01:05;7.17;;;5.50;;
4244;SDS011;2136;48.502;9.194;2022-11-03T03:03:39;7.80;;;5.77;;
4244;SDS011;2136;48.502;9.194;2022-11-03T03:06:12;11.50;;;5.53;;
4244;SDS011;2136;48.502;9.194;2022-11-03T03:08:45;18.00;;;6.63;;
4244;SDS011;2136;48.502;9.194;2022-11-03T03:11:15;14.00;;;5.13;;
4244;SDS011;2136;48.502;9.194;2022-11-03T03:14:02;11.17;;;6.67;;
4244;SDS011;2136;48.502;9.194;2022-11-03T03:16:31;11.30;;;6.07;;
4244;SDS011;2136;48.502;9.194;2022-11-03T03:19:07;7.67;;;6.07;;
4244;SDS011;2136;48.502;9.194;2022-11-03T03:21:47;14.30;;;6.00;;
4244;SDS011;2136;48.502;9.194;2022-11-03T03:24:18;15.10;;;6.80;;
4244;SDS011;2136;48.502;9.194;2022-11-03T03:26:51;9.67;;;6.23;;
4244;SDS011;2136;48.502;9.194;2022-11-03T03:29:25;9.47;;;6.57;;
4244;SDS011;2136;48.502;9.194;2022-11-03T03:31:56;7.97;;;5.70;;
4244;SDS011;2136;48.502;9.194;2022-11-03T03:34:26;7.10;;;6.43;;
4244;SDS011;2136;48.502;9.194;2022-11-03T03:36:56;10.70;;;6.50;;
4244;SDS011;2136;48.502;9.194;2022-11-03T03:39:25;8.10;;;6.20;;
4244;SDS011;2136;48.502;9.194;2022-11-03T03:41:55;8.60;;;5.87;;
4244;SDS011;2136;48.502;9.194;2022-11-03T03:44:25;10.10;;;5.70;;
4244;SDS011;2136;48.502;9.194;2022-11-03T03:46:55;24.37;;;6.23;;
4244;SDS011;2136;48.502;9.194;2022-11-03T03:49:25;14.27;;;5.50;;
4244;SDS011;2136;48.502;9.194;2022-11-03T03:51:52;7.40;;;5.27;;
4244;SDS011;2136;48.502;9.194;2022-11-03T03:54:19;10.40;;;5.60;;
4244;SDS011;2136;48.502;9.194;2022-11-03T03:56:47;6.63;;;5.40;;
4244;SDS011;2136;48.502;9.194;2022-11-03T03:59:19;12.40;;;5.27;;
4244;SDS011;2136;48.502;9.194;2022-11-03T04:01:47;10.23;;;5.83;;
4244;SDS011;2136;48.502;9.194;2022-11-03T05:14:28;7.80;;;5.27;;
4244;SDS011;2136;48.502;9.194;2022-11-03T05:16:57;11.40;;;6.03;;
4244;SDS011;2136;48.502;9.194;2022-11-03T05:19:27;10.80;;;6.70;;
4244;SDS011;2136;48.502;9.194;2022-11-03T05:21:59;9.37;;;6.07;;
4244;SDS011;2136;48.502;9.194;2022-11-03T05:24:27;9.93;;;6.23;;
4244;SDS011;2136;48.502;9.194;2022-11-03T05:26:55;9.40;;;6.23;;
4244;SDS011;2136;48.502;9.194;2022-11-03T05:29:24;7.47;;;6.10;;
4244;SDS011;2136;48.502;9.194;2022-11-03T05:31:57;6.20;;;5.53;;
4244;SDS011;2136;48.502;9.194;2022-11-03T05:34:27;9.30;;;5.40;;
4244;SDS011;2136;48.502;9.194;2022-11-03T05:37:01;9.00;;;5.00;;
4244;SDS011;2136;48.502;9.194;2022-11-03T05:39:47;14.47;;;4.30;;
4244;SDS011;2136;48.502;9.194;2022-11-03T05:42:18;23.43;;;6.93;;
4244;SDS011;2136;48.502;9.194;2022-11-03T05:44:52;7.47;;;4.63;;
4244;SDS011;2136;48.502;9.194;2022-11-03T05:47:21;5.00;;;4.47;;
4244;SDS011;2136;48.502;9.194;2022-11-03T05:49:51;7.20;;;4.60;;
4244;SDS011;2136;48.502;9.194;2022-11-03T05:52:21;5.73;;;4.40;;
4244;SDS011;2136;48.502;9.194;2022-11-03T05:54:49;10.73;;;4.80;;
4244;SDS011;2136;48.502;9.194;2022-11-03T05:57:17;9.30;;;4.43;;
4244;SDS011;2136;48.502;9.194;2022-11-03T05:59:45;6.27;;;4.30;;
4244;SDS011;2136;48.502;9.194;2022-11-03T06:02:19;5.87;;;5.20;;
4244;SDS011;2136;48.502;9.194;2022-11-03T06:04:58;25.50;;;5.20;;
4244;SDS011;2136;48.502;9.194;2022-11-03T06:07:25;7.50;;;5.67;;
4244;SDS011;2136;48.502;9.194;2022-11-03T06:09:54;8.40;;;4.93;;
4244;SDS011;2136;48.502;9.194;2022-11-03T06:12:21;8.70;;;5.40;;
4244;SDS011;2136;48.502;9.194;2022-11-03T06:14:49;6.53;;;5.00;;
4244;SDS011;2136;48.502;9.194;2022-11-03T06:17:18;7.17;;;5.43;;
4244;SDS011;2136;48.502;9.194;2022-11-03T06:19:49;6.10;;;5.30;;
4244;SDS011;2136;48.502;9.194;2022-11-03T06:22:19;11.03;;;5.03;;
4244;SDS011;2136;48.502;9.194;2022-11-03T06:24:49;6.17;;;5.17;;
4244;SDS011;2136;48.502;9.194;2022-11-03T06:27:17;8.30;;;4.57;;
4244;SDS011;2136;48.502;9.194;2022-11-03T06:29:47;5.47;;;4.97;;
4244;SDS011;2136;48.502;9.194;2022-11-03T06:32:16;6.63;;;5.50;;
4244;SDS011;2136;48.502;9.194;2022-11-03T06:34:44;7.20;;;5.97;;
4244;SDS011;2136;48.502;9.194;2022-11-03T06:37:20;8.43;;;5.37;;
4244;SDS011;2136;48.502;9.194;2022-11-03T06:39:50;8.40;;;5.97;;
4244;SDS011;2136;48.502;9.194;2022-11-03T06:42:25;7.40;;;6.40;;
4244;SDS011;2136;48.502;9.194;2022-11-03T06:45:17;7.83;;;5.57;;
4244;SDS011;2136;48.502;9.194;2022-11-03T06:47:46;9.10;;;5.60;;
4244;SDS011;2136;48.502;9.194;2022-11-03T06:50:18;6.30;;;5.07;;
4244;SDS011;2136;48.502;9.194;2022-11-03T06:52:49;17.93;;;7.53;;
4244;SDS011;2136;48.502;9.194;2022-11-03T06:55:23;10.43;;;5.20;;
4244;SDS011;2136;48.502;9.194;2022-11-03T06:57:52;6.70;;;6.00;;
4244;SDS011;2136;48.502;9.194;2022-11-03T07:00:21;8.17;;;5.43;;
4244;SDS011;2136;48.502;9.194;2022-11-03T07:02:54;5.87;;;4.90;;
4244;SDS011;2136;48.502;9.194;2022-11-03T07:05:25;5.50;;;5.00;;
4244;SDS011;2136;48.502;9.194;2022-11-03T07:07:55;5.17;;;4.60;;
4244;SDS011;2136;48.502;9.194;2022-11-03T07:10:24;7.50;;;5.00;;
4244;SDS011;2136;48.502;9.194;2022-11-03T07:12:52;6.00;;;5.17;;
4244;SDS011;2136;48.502;9.194;2022-11-03T07:15:25;4.53;;;4.23;;
4244;SDS011;2136;48.502;9.194;2022-11-03T07:17:56;7.40;;;5.90;;
4244;SDS011;2136;48.502;9.194;2022-11-03T07:20:23;5.63;;;4.97;;
4244;SDS011;2136;48.502;9.194;2022-11-03T07:22:50;6.33;;;5.53;;
4244;SDS011;2136;48.502;9.194;2022-11-03T07:25:20;6.13;;;5.47;;
4244;SDS011;2136;48.502;9.194;2022-11-03T07:27:48;5.83;;;5.33;;
4244;SDS011;2136;48.502;9.194;2022-11-03T07:30:17;7.70;;;5.60;;
4244;SDS011;2136;48.502;9.194;2022-11-03T07:32:46;6.80;;;5.63;;
4244;SDS011;2136;48.502;9.194;2022-11-03T07:35:29;6.17;;;5.57;;
4244;SDS011;2136;48.502;9.194;2022-11-03T07:38:00;6.10;;;4.90;;
4244;SDS011;2136;48.502;9.194;2022-11-03T07:40:31;5.70;;;5.20;;
4244;SDS011;2136;48.502;9.194;2022-11-03T07:43:00;5.73;;;5.13;;
4244;SDS011;2136;48.502;9.194;2022-11-03T07:45:40;8.70;;;6.40;;
4244;SDS011;2136;48.502;9.194;2022-11-03T07:48:17;5.77;;;5.00;;
4244;SDS011;2136;48.502;9.194;2022-11-03T07:50:46;8.10;;;5.67;;
4244;SDS011;2136;48.502;9.194;2022-11-03T07:53:15;7.60;;;4.67;;
4244;SDS011;2136;48.502;9.194;2022-11-03T07:55:47;4.77;;;4.23;;
4244;SDS011;2136;48.502;9.194;2022-11-03T07:58:17;4.80;;;4.40;;
4244;SDS011;2136;48.502;9.194;2022-11-03T08:00:47;7.50;;;5.13;;
4244;SDS011;2136;48.502;9.194;2022-11-03T08:03:19;5.23;;;4.60;;
4244;SDS011;2136;48.502;9.194;2022-11-03T08:05:52;12.33;;;5.50;;
4244;SDS011;2136;48.502;9.194;2022-11-03T08:08:19;6.13;;;5.10;;
4244;SDS011;2136;48.502;9.194;2022-11-03T08:10:47;4.83;;;4.30;;
4244;SDS011;2136;48.502;9.194;2022-11-03T08:13:14;5.80;;;5.20;;
4244;SDS011;2136;48.502;9.194;2022-11-03T08:15:40;7.50;;;4.60;;
4244;SDS011;2136;48.502;9.194;2022-11-03T08:18:07;13.80;;;5.60;;
4244;SDS011;2136;48.502;9.194;2022-11-03T08:20:34;5.20;;;4.80;;
4244;SDS011;2136;48.502;9.194;2022-11-03T08:23:01;4.97;;;4.17;;
4244;SDS011;2136;48.502;9.194;2022-11-03T08:25:28;9.20;;;5.20;;
4244;SDS011;2136;48.502;9.194;2022-11-03T08:27:56;6.37;;;5.23;;
4244;SDS011;2136;48.502;9.194;2022-11-03T08:30:24;19.03;;;5.57;;
4244;SDS011;2136;48.502;9.194;2022-11-03T08:32:51;6.60;;;5.17;;
4244;SDS011;2136;48.502;9.194;2022-11-03T08:35:18;6.53;;;5.00;;
4244;SDS011;2136;48.502;9.194;2022-11-03T08:37:44;6.50;;;4.43;;
4244;SDS011;2136;48.502;9.194;2022-11-03T08:40:11;5.67;;;4.60;;
4244;SDS011;2136;48.502;9.194;2022-11-03T08:42:38;6.43;;;5.07;;
4244;SDS011;2136;48.502;9.194;2022-11-03T08:45:07;18.20;;;5.13;;
4244;SDS011;2136;48.502;9.194;2022-11-03T08:47:34;10.10;;;5.30;;
4244;SDS011;2136;48.502;9.194;2022-11-03T08:50:01;6.70;;;4.50;;
4244;SDS011;2136;48.502;9.194;2022-11-03T08:52:27;7.93;;;5.17;;
4244;SDS011;2136;48.502;9.194;2022-11-03T08:54:54;16.37;;;5.40;;
4244;SDS011;2136;48.502;9.194;2022-11-03T08:57:21;10.43;;;4.83;;
4244;SDS011;2136;48.502;9.194;2022-11-03T08:59:48;11.37;;;5.90;;
4244;SDS011;2136;48.502;9.194;2022-11-03T09:02:18;7.87;;;4.77;;
4244;SDS011;2136;48.502;9.194;2022-11-03T09:04:45;9.10;;;6.03;;
4244;SDS011;2136;48.502;9.194;2022-11-03T09:07:12;5.10;;;4.60;;
4244;SDS011;2136;48.502;9.194;2022-11-03T09:09:38;7.97;;;4.77;;
4244;SDS011;2136;48.502;9.194;2022-11-03T09:12:05;12.00;;;5.70;;
4244;SDS011;2136;48.502;9.194;2022-11-03T09:14:32;6.57;;;5.10;;
4244;SDS011;2136;48.502;9.194;2022-11-03T09:16:59;8.23;;;4.87;;
4244;SDS011;2136;48.502;9.194;2022-11-03T09:19:27;6.73;;;4.73;;
4244;SDS011;2136;48.502;9.194;2022-11-03T09:21:54;5.90;;;5.23;;
4244;SDS011;2136;48.502;9.194;2022-11-03T09:24:21;9.73;;;5.03;;
4244;SDS011;2136;48.502;9.194;2022-11-03T09:26:48;6.53;;;4.73;;
4244;SDS011;2136;48.502;9.194;2022-11-03T09:29:15;6.50;;;5.00;;
4244;SDS011;2136;48.502;9.194;2022-11-03T09:31:42;7.20;;;4.47;;
4244;SDS011;2136;48.502;9.194;2022-11-03T09:34:09;4.93;;;4.30;;
4244;SDS011;2136;48.502;9.194;2022-11-03T09:36:37;15.60;;;5.67;;
4244;SDS011;2136;48.502;9.194;2022-11-03T09:39:04;12.20;;;6.43;;
4244;SDS011;2136;48.502;9.194;2022-11-03T09:41:31;9.17;;;4.60;;
4244;SDS011;2136;48.502;9.194;2022-11-03T09:43:58;4.70;;;4.23;;
4244;SDS011;2136;48.502;9.194;2022-11-03T09:46:25;6.90;;;4.50;;
4244;SDS011;2136;48.502;9.194;2022-11-03T09:48:54;11.27;;;4.20;;
4244;SDS011;2136;48.502;9.194;2022-11-03T09:51:21;7.77;;;4.60;;
4244;SDS011;2136;48.502;9.194;2022-11-03T09:53:52;7.53;;;5.33;;
4244;SDS011;2136;48.502;9.194;2022-11-03T09:56:23;7.80;;;4.80;;
4244;SDS011;2136;48.502;9.194;2022-11-03T09:58:50;7.63;;;4.83;;
4244;SDS011;2136;48.502;9.194;2022-11-03T10:01:17;4.93;;;4.40;;
4244;SDS011;2136;48.502;9.194;2022-11-03T10:03:44;7.43;;;4.70;;
4244;SDS011;2136;48.502;9.194;2022-11-03T10:06:11;10.10;;;5.23;;
4244;SDS011;2136;48.502;9.194;2022-11-03T10:08:40;4.93;;;4.43;;
4244;SDS011;2136;48.502;9.194;2022-11-03T10:11:11;6.60;;;4.97;;
4244;SDS011;2136;48.502;9.194;2022-11-03T10:13:39;6.77;;;5.40;;
4244;SDS011;2136;48.502;9.194;2022-11-03T10:16:09;13.60;;;6.10;;
4244;SDS011;2136;48.502;9.194;2022-11-03T10:18:40;7.30;;;4.60;;
4244;SDS011;2136;48.502;9.194;2022-11-03T10:21:10;6.83;;;4.70;;
4244;SDS011;2136;48.502;9.194;2022-11-03T10:23:40;7.53;;;5.20;;
4244;SDS011;2136;48.502;9.194;2022-11-03T10:26:07;8.93;;;5.47;;
4244;SDS011;2136;48.502;9.194;2022-11-03T10:28:37;4.77;;;4.40;;
4244;SDS011;2136;48.502;9.194;2022-11-03T10:31:05;6.20;;;4.67;;
4244;SDS011;2136;48.502;9.194;2022-11-03T10:33:49;5.20;;;4.70;;
4244;SDS011;2136;48.502;9.194;2022-11-03T10:36:21;6.60;;;4.80;;
4244;SDS011;2136;48.502;9.194;2022-11-03T10:38:50;7.67;;;4.23;;
4244;SDS011;2136;48.502;9.194;2022-11-03T10:41:17;6.93;;;4.03;;
4244;SDS011;2136;48.502;9.194;2022-11-03T10:43:59;8.63;;;4.33;;
4244;SDS011;2136;48.502;9.194;2022-11-03T10:46:28;4.27;;;3.87;;
4244;SDS011;2136;48.502;9.194;2022-11-03T10:49:04;6.97;;;4.00;;
4244;SDS011;2136;48.502;9.194;2022-11-03T10:51:37;4.30;;;3.90;;
4244;SDS011;2136;48.502;9.194;2022-11-03T10:54:04;5.93;;;3.63;;
4244;SDS011;2136;48.502;9.194;2022-11-03T10:56:35;7.10;;;4.10;;
4244;SDS011;2136;48.502;9.194;2022-11-03T10:59:03;4.20;;;3.90;;
4244;SDS011;2136;48.502;9.194;2022-11-03T11:01:30;11.13;;;3.73;;
4244;SDS011;2136;48.502;9.194;2022-11-03T11:03:57;7.90;;;5.57;;
4244;SDS011;2136;48.502;9.194;2022-11-03T11:06:25;6.60;;;3.80;;
4244;SDS011;2136;48.502;9.194;2022-11-03T11:08:53;6.00;;;3.67;;
4244;SDS011;2136;48.502;9.194;2022-11-03T11:11:25;5.30;;;3.60;;
4244;SDS011;2136;48.502;9.194;2022-11-03T11:16:49;6.73;;;4.17;;
4244;SDS011;2136;48.502;9.194;2022-11-03T11:19:17;6.00;;;4.37;;
4244;SDS011;2136;48.502;9.194;2022-11-03T11:21:57;4.97;;;3.87;;
4244;SDS011;2136;48.502;9.194;2022-11-03T11:33:30;9.33;;;5.57;;
4244;SDS011;2136;48.502;9.194;2022-11-03T11:36:03;10.27;;;5.43;;
4244;SDS011;2136;48.502;9.194;2022-11-03T11:44:48;12.60;;;7.40;;
4244;SDS011;2136;48.502;9.194;2022-11-03T11:47:30;10.83;;;7.13;;
4244;SDS011;2136;48.502;9.194;2022-11-03T11:53:03;9.53;;;5.03;;
4244;SDS011;2136;48.502;9.194;2022-11-03T11:55:39;15.07;;;4.73;;
4244;SDS011;2136;48.502;9.194;2022-11-03T11:58:13;8.10;;;4.97;;
4244;SDS011;2136;48.502;9.194;2022-11-03T12:00:50;9.97;;;4.80;;
4244;SDS011;2136;48.502;9.194;2022-11-03T12:03:22;9.43;;;5.20;;
4244;SDS011;2136;48.502;9.194;2022-11-03T12:05:54;6.10;;;5.00;;
4244;SDS011;2136;48.502;9.194;2022-11-03T12:08:24;11.10;;;4.77;;
4244;SDS011;2136;48.502;9.194;2022-11-03T12:10:54;10.70;;;5.50;;
4244;SDS011;2136;48.502;9.194;2022-11-03T12:16:30;11.00;;;5.20;;
4244;SDS011;2136;48.502;9.194;2022-11-03T12:22:06;11.03;;;6.20;;
4244;SDS011;2136;48.502;9.194;2022-11-03T12:24:35;8.57;;;5.90;;
4244;SDS011;2136;48.502;9.194;2022-11-03T12:27:19;9.80;;;5.30;;
4244;SDS011;2136;48.502;9.194;2022-11-03T12:30:10;11.80;;;5.47;;
4244;SDS011;2136;48.502;9.194;2022-11-03T12:32:39;8.80;;;6.10;;
4244;SDS011;2136;48.502;9.194;2022-11-03T12:35:06;7.10;;;4.93;;
4244;SDS011;2136;48.502;9.194;2022-11-03T12:37:36;21.27;;;9.20;;
4244;SDS011;2136;48.502;9.194;2022-11-03T12:40:03;16.20;;;5.37;;
4244;SDS011;2136;48.502;9.194;2022-11-03T12:42:31;13.13;;;6.43;;
4244;SDS011;2136;48.502;9.194;2022-11-03T12:44:57;6.87;;;6.10;;
4244;SDS011;2136;48.502;9.194;2022-11-03T12:47:25;9.77;;;6.50;;
4244;SDS011;2136;48.502;9.194;2022-11-03T12:49:51;11.23;;;5.97;;
4244;SDS011;2136;48.502;9.194;2022-11-03T12:52:18;13.50;;;6.10;;
4244;SDS011;2136;48.502;9.194;2022-11-03T12:54:46;12.50;;;7.00;;
4244;SDS011;2136;48.502;9.194;2022-11-03T12:57:13;10.47;;;5.97;;
4244;SDS011;2136;48.502;9.194;2022-11-03T12:59:40;7.60;;;5.43;;
4244;SDS011;2136;48.502;9.194;2022-11-03T13:02:07;11.97;;;5.73;;
4244;SDS011;2136;48.502;9.194;2022-11-03T13:04:35;7.87;;;4.80;;
4244;SDS011;2136;48.502;9.194;2022-11-03T13:07:01;12.00;;;4.73;;
4244;SDS011;2136;48.502;9.194;2022-11-03T13:09:28;12.00;;;6.53;;
4244;SDS011;2136;48.502;9.194;2022-11-03T13:11:56;12.40;;;7.50;;
4244;SDS011;2136;48.502;9.194;2022-11-03T13:14:41;12.50;;;7.67;;
4244;SDS011;2136;48.502;9.194;2022-11-03T13:17:08;14.57;;;7.23;;
4244;SDS011;2136;48.502;9.194;2022-11-03T13:19:34;12.03;;;7.70;;
4244;SDS011;2136;48.502;9.194;2022-11-03T13:22:01;22.93;;;8.17;;
4244;SDS011;2136;48.502;9.194;2022-11-03T13:24:28;19.03;;;8.77;;
4244;SDS011;2136;48.502;9.194;2022-11-03T13:26:56;10.70;;;6.70;;
4244;SDS011;2136;48.502;9.194;2022-11-03T13:29:23;12.23;;;6.33;;
4244;SDS011;2136;48.502;9.194;2022-11-03T13:31:50;12.80;;;6.70;;
4244;SDS011;2136;48.502;9.194;2022-11-03T13:34:17;13.70;;;6.97;;
4244;SDS011;2136;48.502;9.194;2022-11-03T13:36:43;13.77;;;6.67;;
4244;SDS011;2136;48.502;9.194;2022-11-03T13:39:10;11.53;;;7.33;;
4244;SDS011;2136;48.502;9.194;2022-11-03T13:41:37;36.37;;;8.90;;
4244;SDS011;2136;48.502;9.194;2022-11-03T13:44:05;19.03;;;10.03;;
4244;SDS011;2136;48.502;9.194;2022-11-03T13:46:32;14.97;;;9.07;;
4244;SDS011;2136;48.502;9.194;2022-11-03T13:48:59;15.07;;;7.37;;
4244;SDS011;2136;48.502;9.194;2022-11-03T13:51:26;13.70;;;7.67;;
4244;SDS011;2136;48.502;9.194;2022-11-03T13:53:53;12.53;;;5.83;;
4244;SDS011;2136;48.502;9.194;2022-11-03T13:56:22;14.40;;;7.27;;
4244;SDS011;2136;48.502;9.194;2022-11-03T13:58:51;32.77;;;9.50;;
4244;SDS011;2136;48.502;9.194;2022-11-03T14:01:19;13.37;;;8.83;;
4244;SDS011;2136;48.502;9.194;2022-11-03T14:03:46;16.43;;;8.67;;
4244;SDS011;2136;48.502;9.194;2022-11-03T14:06:12;26.40;;;14.47;;
4244;SDS011;2136;48.502;9.194;2022-11-03T14:08:39;23.47;;;9.70;;
4244;SDS011;2136;48.502;9.194;2022-11-03T14:11:06;20.00;;;12.23;;
4244;SDS011;2136;48.502;9.194;2022-11-03T14:13:47;13.70;;;6.83;;
4244;SDS011;2136;48.502;9.194;2022-11-03T14:16:14;7.00;;;4.10;;
4244;SDS011;2136;48.502;9.194;2022-11-03T14:18:42;4.70;;;3.30;;
4244;SDS011;2136;48.502;9.194;2022-11-03T14:21:09;3.33;;;3.03;;
4244;SDS011;2136;48.502;9.194;2022-11-03T14:23:36;3.97;;;2.80;;
4244;SDS011;2136;48.502;9.194;2022-11-03T14:26:02;6.40;;;3.00;;
4244;SDS011;2136;48.502;9.194;2022-11-03T14:28:29;6.33;;;2.73;;
4244;SDS011;2136;48.502;9.194;2022-11-03T14:30:56;15.63;;;3.53;;
4244;SDS011;2136;48.502;9.194;2022-11-03T14:33:25;4.80;;;2.43;;
4244;SDS011;2136;48.502;9.194;2022-11-03T14:35:53;3.10;;;2.77;;
4244;SDS011;2136;48.502;9.194;2022-11-03T14:38:20;6.10;;;3.40;;
4244;SDS011;2136;48.502;9.194;2022-11-03T14:40:46;4.30;;;3.00;;
4244;SDS011;2136;48.502;9.194;2022-11-03T14:43:31;4.83;;;2.67;;
4244;SDS011;2136;48.502;9.194;2022-11-03T14:45:57;3.47;;;2.87;;
4244;SDS011;2136;48.502;9.194;2022-11-03T14:48:24;2.63;;;2.40;;
4244;SDS011;2136;48.502;9.194;2022-11-03T14:50:52;4.93;;;2.70;;
4244;SDS011;2136;48.502;9.194;2022-11-03T14:53:19;3.63;;;2.87;;
4244;SDS011;2136;48.502;9.194;2022-11-03T14:55:46;4.57;;;3.27;;
4244;SDS011;2136;48.502;9.194;2022-11-03T14:58:13;10.00;;;2.97;;
4244;SDS011;2136;48.502;9.194;2022-11-03T15:00:39;3.67;;;3.30;;
4244;SDS011;2136;48.502;9.194;2022-11-03T15:03:06;4.60;;;3.03;;
4244;SDS011;2136;48.502;9.194;2022-11-03T15:05:33;5.50;;;4.00;;
4244;SDS011;2136;48.502;9.194;2022-11-03T15:08:14;4.93;;;2.80;;
4244;SDS011;2136;48.502;9.194;2022-11-03T15:10:42;6.57;;;2.93;;
4244;SDS011;2136;48.502;9.194;2022-11-03T15:13:09;8.03;;;4.40;;
4244;SDS011;2136;48.502;9.194;2022-11-03T15:15:36;4.93;;;3.83;;
4244;SDS011;2136;48.502;9.194;2022-11-03T15:18:05;4.53;;;2.77;;
4244;SDS011;2136;48.502;9.194;2022-11-03T15:20:32;7.67;;;3.17;;
4244;SDS011;2136;48.502;9.194;2022-11-03T15:22:59;4.60;;;3.00;;
4244;SDS011;2136;48.502;9.194;2022-11-03T15:25:28;6.20;;;3.47;;
4244;SDS011;2136;48.502;9.194;2022-11-03T15:27:55;5.10;;;4.60;;
4244;SDS011;2136;48.502;9.194;2022-11-03T15:30:22;3.87;;;3.33;;
4244;SDS011;2136;48.502;9.194;2022-11-03T15:32:49;5.23;;;4.00;;
4244;SDS011;2136;48.502;9.194;2022-11-03T15:35:15;6.80;;;4.70;;
4244;SDS011;2136;48.502;9.194;2022-11-03T15:37:43;9.50;;;6.60;;
4244;SDS011;2136;48.502;9.194;2022-11-03T15:40:11;5.47;;;4.13;;
4244;SDS011;2136;48.502;9.194;2022-11-03T15:42:41;6.33;;;5.00;;
4244;SDS011;2136;48.502;9.194;2022-11-03T15:45:09;9.13;;;6.97;;
4244;SDS011;2136;48.502;9.194;2022-11-03T15:47:38;9.27;;;6.80;;
4244;SDS011;2136;48.502;9.194;2022-11-03T15:50:05;8.70;;;5.30;;
4244;SDS011;2136;48.502;9.194;2022-11-03T15:52:32;18.00;;;5.13;;
4244;SDS011;2136;48.502;9.194;2022-11-03T15:54:59;8.17;;;5.00;;
4244;SDS011;2136;48.502;9.194;2022-11-03T15:57:26;4.63;;;4.23;;
4244;SDS011;2136;48.502;9.194;2022-11-03T15:59:55;7.83;;;5.00;;
4244;SDS011;2136;48.502;9.194;2022-11-03T16:02:22;6.07;;;4.90;;
4244;SDS011;2136;48.502;9.194;2022-11-03T16:04:58;6.50;;;4.57;;
4244;SDS011;2136;48.502;9.194;2022-11-03T16:07:26;6.57;;;4.43;;
4244;SDS011;2136;48.502;9.194;2022-11-03T16:09:53;6.90;;;4.80;;
4244;SDS011;2136;48.502;9.194;2022-11-03T16:12:20;5.80;;;4.50;;
4244;SDS011;2136;48.502;9.194;2022-11-03T16:14:48;8.67;;;5.30;;
4244;SDS011;2136;48.502;9.194;2022-11-03T16:17:16;11.67;;;5.63;;
4244;SDS011;2136;48.502;9.194;2022-11-03T16:19:43;6.10;;;5.50;;
4244;SDS011;2136;48.502;9.194;2022-11-03T16:22:10;7.13;;;5.33;;
4244;SDS011;2136;48.502;9.194;2022-11-03T16:24:37;9.47;;;6.20;;
4244;SDS011;2136;48.502;9.194;2022-11-03T16:27:05;6.07;;;5.30;;
4244;SDS011;2136;48.502;9.194;2022-11-03T16:29:33;6.87;;;6.10;;
4244;SDS011;2136;48.502;9.194;2022-11-03T16:32:00;6.13;;;5.43;;
4244;SDS011;2136;48.502;9.194;2022-11-03T16:34:28;11.77;;;6.03;;
4244;SDS011;2136;48.502;9.194;2022-11-03T16:36:55;6.00;;;4.90;;
4244;SDS011;2136;48.502;9.194;2022-11-03T16:39:22;5.20;;;4.53;;
4244;SDS011;2136;48.502;9.194;2022-11-03T16:41:49;11.50;;;6.70;;
4244;SDS011;2136;48.502;9.194;2022-11-03T16:44:18;8.00;;;4.87;;
4244;SDS011;2136;48.502;9.194;2022-11-03T16:46:46;5.50;;;4.77;;
4244;SDS011;2136;48.502;9.194;2022-11-03T16:49:13;7.67;;;6.70;;
4244;SDS011;2136;48.502;9.194;2022-11-03T16:51:41;7.57;;;5.60;;
4244;SDS011;2136;48.502;9.194;2022-11-03T16:54:08;9.40;;;6.07;;
4244;SDS011;2136;48.502;9.194;2022-11-03T16:56:34;8.27;;;6.17;;
4244;SDS011;2136;48.502;9.194;2022-11-03T16:59:01;11.90;;;6.83;;
4244;SDS011;2136;48.502;9.194;2022-11-03T17:01:28;8.97;;;5.63;;